createdAt,value
2023-05-21T00:01:07.060Z,15.03
2023-05-21T00:03:36.073Z,14.96
2023-05-21T00:06:04.478Z,14.91
2023-05-21T00:08:34.125Z,14.88
2023-05-21T00:11:01.709Z,14.84
2023-05-21T00:13:29.313Z,14.85
2023-05-21T00:15:58.458Z,14.83
2023-05-21T00:18:26.406Z,14.83
2023-05-21T00:20:54.407Z,14.83
2023-05-21T00:23:22.024Z,14.85
2023-05-21T00:25:50.463Z,14.89
2023-05-21T00:28:18.191Z,14.81
2023-05-21T00:30:47.240Z,14.83
2023-05-21T00:33:16.247Z,14.87
2023-05-21T00:35:43.859Z,14.94
2023-05-21T00:38:11.531Z,14.91
2023-05-21T00:40:41.165Z,15.02
2023-05-21T00:43:10.682Z,14.94
2023-05-21T00:45:38.649Z,14.89
2023-05-21T00:48:08.005Z,15.00
2023-05-21T00:50:39.593Z,14.91
2023-05-21T00:53:12.717Z,14.91
2023-05-21T00:55:40.828Z,14.89
2023-05-21T00:58:09.108Z,14.80
2023-05-21T01:00:37.380Z,14.88
2023-05-21T01:03:06.137Z,14.92
2023-05-21T01:05:34.043Z,14.84
2023-05-21T01:08:03.867Z,14.80
2023-05-21T01:10:31.576Z,14.74
2023-05-21T01:12:59.654Z,14.71
2023-05-21T01:15:27.602Z,14.75
2023-05-21T01:17:55.852Z,14.71
2023-05-21T01:20:24.503Z,14.82
2023-05-21T01:22:55.063Z,14.82
2023-05-21T01:25:22.890Z,14.82
2023-05-21T01:27:50.710Z,14.74
2023-05-21T01:30:19.576Z,14.77
2023-05-21T01:32:50.594Z,14.76
2023-05-21T01:35:21.976Z,14.76
2023-05-21T01:37:56.383Z,14.70
2023-05-21T01:40:27.720Z,14.74
2023-05-21T01:42:55.342Z,14.67
2023-05-21T01:45:23.963Z,14.65
2023-05-21T01:47:53.110Z,14.67
2023-05-21T01:50:20.792Z,14.72
2023-05-21T01:52:51.766Z,14.76
2023-05-21T01:55:24.490Z,14.66
2023-05-21T01:57:53.639Z,14.68
2023-05-21T02:00:22.330Z,14.71
2023-05-21T02:02:50.290Z,14.70
2023-05-21T02:05:18.279Z,14.65
2023-05-21T02:07:46.421Z,14.71
2023-05-21T02:10:14.485Z,14.67
2023-05-21T02:12:44.082Z,14.78
2023-05-21T02:15:11.750Z,14.71
2023-05-21T02:17:39.490Z,14.63
2023-05-21T02:20:11.519Z,14.74
2023-05-21T02:22:39.870Z,14.70
2023-05-21T02:25:08.997Z,14.67
2023-05-21T02:27:37.608Z,14.68
2023-05-21T02:30:08.990Z,14.72
2023-05-21T02:32:36.907Z,14.65
2023-05-21T02:35:05.600Z,14.77
2023-05-21T02:37:34.196Z,14.78
2023-05-21T02:40:02.207Z,14.71
2023-05-21T02:42:29.823Z,14.69
2023-05-21T02:44:57.461Z,14.71
2023-05-21T02:47:27.038Z,14.74
2023-05-21T02:49:55.203Z,14.69
2023-05-21T02:52:23.898Z,14.71
2023-05-21T02:54:53.266Z,14.69
2023-05-21T02:57:20.938Z,14.65
2023-05-21T02:59:48.495Z,14.74
2023-05-21T03:02:16.350Z,14.74
2023-05-21T03:04:46.927Z,14.71
2023-05-21T03:07:15.103Z,14.66
2023-05-21T03:09:42.926Z,14.62
2023-05-21T03:12:11.285Z,14.66
2023-05-21T03:14:39.232Z,14.65
2023-05-21T03:17:07.730Z,14.63
2023-05-21T03:19:36.297Z,14.72
2023-05-21T03:22:05.721Z,14.54
2023-05-21T03:24:33.634Z,14.46
2023-05-21T03:27:02.005Z,14.45
2023-05-21T03:29:29.885Z,14.48
2023-05-21T03:31:58.093Z,14.59
2023-05-21T03:34:25.806Z,14.59
2023-05-21T03:36:53.419Z,14.55
2023-05-21T03:39:22.369Z,14.48
2023-05-21T03:41:49.960Z,14.56
2023-05-21T03:44:17.607Z,14.54
2023-05-21T03:46:46.118Z,14.54
2023-05-21T03:49:15.020Z,14.40
2023-05-21T03:51:42.612Z,14.43
2023-05-21T03:54:10.399Z,14.48
2023-05-21T03:56:39.329Z,14.44
2023-05-21T03:59:06.909Z,14.46
2023-05-21T04:01:34.844Z,14.46
2023-05-21T04:04:02.609Z,14.51
2023-05-21T04:06:30.309Z,14.46
2023-05-21T04:08:57.920Z,14.44
2023-05-21T04:11:26.100Z,14.43
2023-05-21T04:13:55.041Z,14.54
2023-05-21T04:16:24.558Z,14.48
2023-05-21T04:18:52.373Z,14.58
2023-05-21T04:21:20.044Z,14.59
2023-05-21T04:23:47.672Z,14.54
2023-05-21T04:26:16.243Z,14.55
2023-05-21T04:28:45.748Z,14.52
2023-05-21T04:31:15.126Z,14.65
2023-05-21T04:33:45.860Z,14.57
2023-05-21T04:36:13.579Z,14.62
2023-05-21T04:38:42.364Z,14.66
2023-05-21T04:41:10.866Z,14.69
2023-05-21T04:43:38.626Z,14.71
2023-05-21T04:46:06.434Z,14.66
2023-05-21T04:48:35.425Z,14.67
2023-05-21T04:51:05.753Z,14.67
2023-05-21T04:53:33.891Z,14.85
2023-05-21T04:56:01.596Z,14.81
2023-05-21T04:58:29.218Z,14.86
2023-05-21T05:00:57.826Z,14.92
2023-05-21T05:03:25.608Z,14.96
2023-05-21T05:05:54.700Z,14.99
2023-05-21T05:08:22.330Z,15.13
2023-05-21T05:10:49.928Z,15.12
2023-05-21T05:13:17.603Z,15.25
2023-05-21T05:15:46.108Z,15.37
2023-05-21T05:18:15.111Z,15.41
2023-05-21T05:20:42.783Z,15.47
2023-05-21T05:23:11.756Z,15.56
2023-05-21T05:25:39.614Z,15.57
2023-05-21T05:28:07.372Z,15.58
2023-05-21T05:30:36.095Z,15.57
2023-05-21T05:33:03.809Z,15.67
2023-05-21T05:35:31.390Z,15.82
2023-05-21T05:37:59.263Z,15.89
2023-05-21T05:40:28.257Z,15.88
2023-05-21T05:42:55.958Z,16.03
2023-05-21T05:45:23.660Z,16.11
2023-05-21T05:47:51.288Z,16.26
2023-05-21T05:50:21.873Z,16.34
2023-05-21T05:52:49.514Z,16.42
2023-05-21T05:55:17.634Z,16.49
2023-05-21T05:57:46.636Z,16.60
2023-05-21T06:00:15.288Z,16.72
2023-05-21T06:02:43.148Z,16.82
2023-05-21T06:05:11.464Z,16.80
2023-05-21T06:07:39.679Z,16.85
2023-05-21T06:10:07.915Z,16.95
2023-05-21T06:12:35.908Z,17.06
2023-05-21T06:15:05.732Z,17.05
2023-05-21T06:17:33.380Z,17.11
2023-05-21T06:20:00.975Z,17.23
2023-05-21T06:22:28.614Z,17.25
2023-05-21T06:24:56.201Z,17.26
2023-05-21T06:27:23.777Z,17.38
2023-05-21T06:29:51.427Z,17.51
2023-05-21T06:32:21.364Z,17.70
2023-05-21T06:34:49.039Z,17.84
2023-05-21T06:37:20.482Z,17.94
2023-05-21T06:39:48.080Z,18.05
2023-05-21T06:42:15.749Z,17.99
2023-05-21T06:44:43.393Z,18.22
2023-05-21T06:47:11.018Z,18.40
2023-05-21T06:49:39.923Z,18.50
2023-05-21T06:52:07.980Z,18.69
2023-05-21T06:54:35.683Z,18.85
2023-05-21T06:57:03.315Z,18.76
2023-05-21T06:59:31.527Z,18.96
2023-05-21T07:01:59.210Z,18.92
2023-05-21T07:04:26.816Z,18.94
2023-05-21T07:06:55.770Z,19.06
2023-05-21T07:09:23.420Z,19.19
2023-05-21T07:11:51.630Z,19.21
2023-05-21T07:14:19.224Z,19.19
2023-05-21T07:16:46.874Z,19.25
2023-05-21T07:19:15.955Z,19.34
2023-05-21T07:21:43.608Z,19.57
2023-05-21T07:24:12.668Z,19.44
2023-05-21T07:26:40.415Z,19.55
2023-05-21T07:29:08.095Z,19.68
2023-05-21T07:31:35.749Z,19.85
2023-05-21T07:34:03.445Z,19.77
2023-05-21T07:36:31.078Z,20.12
2023-05-21T07:38:58.806Z,20.05
2023-05-21T07:41:27.728Z,20.21
2023-05-21T07:43:55.276Z,20.25
2023-05-21T07:46:23.300Z,20.21
2023-05-21T07:48:51.011Z,20.11
2023-05-21T07:51:18.684Z,19.99
2023-05-21T07:53:46.308Z,20.45
2023-05-21T07:56:13.965Z,20.76
2023-05-21T07:58:45.827Z,20.80
2023-05-21T08:01:13.574Z,20.82
2023-05-21T08:03:41.438Z,20.85
2023-05-21T08:06:09.180Z,20.82
2023-05-21T08:08:36.776Z,20.89
2023-05-21T08:11:04.437Z,20.75
2023-05-21T08:13:32.020Z,20.83
2023-05-21T08:16:01.600Z,20.83
2023-05-21T08:18:29.203Z,20.70
2023-05-21T08:20:56.896Z,20.42
2023-05-21T08:23:24.516Z,20.28
2023-05-21T08:25:53.459Z,20.37
2023-05-21T08:28:23.192Z,20.30
2023-05-21T08:30:50.844Z,20.38
2023-05-21T08:33:21.110Z,20.47
2023-05-21T08:35:49.153Z,20.34
2023-05-21T08:38:17.684Z,20.45
2023-05-21T08:40:47.657Z,20.77
2023-05-21T08:43:16.466Z,20.56
2023-05-21T08:45:46.719Z,20.67
2023-05-21T08:48:18.799Z,20.76
2023-05-21T08:50:46.469Z,20.78
2023-05-21T08:53:23.931Z,20.85
2023-05-21T08:55:57.172Z,20.57
2023-05-21T08:58:25.187Z,20.39
2023-05-21T09:00:52.826Z,20.53
2023-05-21T09:03:22.429Z,20.89
2023-05-21T09:05:51.169Z,20.91
2023-05-21T09:08:20.580Z,21.03
2023-05-21T09:10:51.155Z,20.91
2023-05-21T09:13:19.426Z,20.79
2023-05-21T09:15:47.733Z,20.92
2023-05-21T09:18:15.680Z,20.83
2023-05-21T09:20:45.337Z,20.89
2023-05-21T09:23:16.929Z,20.88
2023-05-21T09:25:46.823Z,20.93
2023-05-21T09:28:18.692Z,20.95
2023-05-21T09:30:46.769Z,20.93
2023-05-21T09:33:25.452Z,21.00
2023-05-21T09:35:54.523Z,21.09
2023-05-21T09:38:23.630Z,21.07
2023-05-21T09:40:51.610Z,20.80
2023-05-21T09:43:19.469Z,21.02
2023-05-21T09:45:53.874Z,20.93
2023-05-21T09:48:35.127Z,21.08
2023-05-21T09:51:15.004Z,21.24
2023-05-21T09:53:47.852Z,21.32
2023-05-21T09:56:15.520Z,21.16
2023-05-21T09:58:43.221Z,21.26
2023-05-21T10:01:11.825Z,21.13
2023-05-21T10:03:40.843Z,21.23
2023-05-21T10:06:09.957Z,21.08
2023-05-21T10:08:42.943Z,21.23
2023-05-21T10:11:11.120Z,21.46
2023-05-21T10:13:41.315Z,21.55
2023-05-21T10:16:09.377Z,21.76
2023-05-21T10:18:38.366Z,21.60
2023-05-21T10:21:07.166Z,21.83
2023-05-21T10:23:37.515Z,22.07
2023-05-21T10:26:06.607Z,22.33
2023-05-21T10:28:34.540Z,22.36
2023-05-21T10:31:02.405Z,22.51
2023-05-21T10:33:30.514Z,22.54
2023-05-21T10:35:59.567Z,22.60
2023-05-21T10:38:28.802Z,22.61
2023-05-21T10:40:56.895Z,22.69
2023-05-21T10:43:50.052Z,22.74
2023-05-21T10:46:40.798Z,22.84
2023-05-21T10:49:28.181Z,22.98
2023-05-21T10:52:06.953Z,22.88
2023-05-21T10:55:03.156Z,23.30
2023-05-21T10:57:45.949Z,23.51
2023-05-21T11:00:17.175Z,23.64
2023-05-21T11:02:45.678Z,23.74
2023-05-21T11:05:13.520Z,23.78
2023-05-21T11:07:56.176Z,24.07
2023-05-21T11:10:37.698Z,24.16
2023-05-21T11:13:09.554Z,24.02
2023-05-21T11:16:10.807Z,24.19
2023-05-21T11:19:00.712Z,24.34
2023-05-21T11:21:31.317Z,24.34
2023-05-21T11:24:03.727Z,24.17
2023-05-21T11:26:52.521Z,24.30
2023-05-21T11:29:21.018Z,24.40
2023-05-21T11:32:01.352Z,24.33
2023-05-21T11:34:39.500Z,24.30
2023-05-21T11:37:28.963Z,24.39
2023-05-21T11:39:57.533Z,24.46
2023-05-21T11:42:33.043Z,24.65
2023-05-21T11:45:01.948Z,25.04
2023-05-21T11:47:32.187Z,24.96
2023-05-21T11:50:01.097Z,25.35
2023-05-21T11:52:30.051Z,25.03
2023-05-21T11:54:59.620Z,25.26
2023-05-21T11:57:30.729Z,25.07
2023-05-21T11:59:59.747Z,25.19
2023-05-21T12:02:28.515Z,24.65
2023-05-21T12:05:00.019Z,24.43
2023-05-21T12:07:29.607Z,24.54
2023-05-21T12:09:57.438Z,24.62
2023-05-21T12:12:27.202Z,24.92
2023-05-21T12:14:56.959Z,25.03
2023-05-21T12:17:25.616Z,25.18
2023-05-21T12:19:55.281Z,25.09
2023-05-21T12:22:25.038Z,24.97
2023-05-21T12:24:53.840Z,24.87
2023-05-21T12:27:22.782Z,25.17
2023-05-21T12:29:51.603Z,25.30
2023-05-21T12:32:19.241Z,25.19
2023-05-21T12:34:48.645Z,25.29
2023-05-21T12:37:17.314Z,25.44
2023-05-21T12:39:47.403Z,25.48
2023-05-21T12:42:15.401Z,25.69
2023-05-21T12:44:45.445Z,25.61
2023-05-21T12:47:13.473Z,25.84
2023-05-21T12:49:42.121Z,25.86
2023-05-21T12:52:11.334Z,25.94
2023-05-21T12:54:39.908Z,26.07
2023-05-21T12:57:15.250Z,25.73
2023-05-21T12:59:50.698Z,25.24
2023-05-21T13:02:21.811Z,25.87
2023-05-21T13:04:49.893Z,26.15
2023-05-21T13:07:19.346Z,25.86
2023-05-21T13:09:47.000Z,26.02
2023-05-21T13:12:15.977Z,25.77
2023-05-21T13:14:43.612Z,25.95
2023-05-21T13:17:12.107Z,26.06
2023-05-21T13:19:39.694Z,26.05
2023-05-21T13:22:07.655Z,25.72
2023-05-21T13:24:35.343Z,26.03
2023-05-21T13:27:03.043Z,25.99
2023-05-21T13:29:32.238Z,25.80
2023-05-21T13:31:59.955Z,25.83
2023-05-21T13:34:27.561Z,25.75
2023-05-21T13:36:55.145Z,25.81
2023-05-21T13:39:26.762Z,25.93
2023-05-21T13:41:55.068Z,26.23
2023-05-21T13:44:22.790Z,26.05
2023-05-21T13:46:51.908Z,25.80
2023-05-21T13:49:19.612Z,25.99
2023-05-21T13:51:47.422Z,26.23
2023-05-21T13:54:15.745Z,26.05
2023-05-21T13:56:43.456Z,26.10
2023-05-21T13:59:11.086Z,26.23
2023-05-21T14:01:38.786Z,26.63
2023-05-21T14:04:08.329Z,26.45
2023-05-21T14:06:36.089Z,26.10
2023-05-21T14:09:08.568Z,26.42
2023-05-21T14:11:36.593Z,26.28
2023-05-21T14:14:07.151Z,26.50
2023-05-21T14:16:34.874Z,26.69
2023-05-21T14:19:03.542Z,26.36
2023-05-21T14:21:32.819Z,26.71
2023-05-21T14:24:00.561Z,26.71
2023-05-21T14:26:28.494Z,26.45
2023-05-21T14:28:57.012Z,26.90
2023-05-21T14:31:25.397Z,27.14
2023-05-21T14:33:53.024Z,27.10
2023-05-21T14:36:20.735Z,26.55
2023-05-21T14:38:49.828Z,26.71
2023-05-21T14:41:17.550Z,26.69
2023-05-21T14:43:45.238Z,26.83
2023-05-21T14:46:13.180Z,26.74
2023-05-21T14:48:41.107Z,26.66
2023-05-21T14:51:11.981Z,26.62
2023-05-21T14:53:39.746Z,26.42
2023-05-21T14:56:09.317Z,26.78
2023-05-21T14:58:36.930Z,26.63
2023-05-21T15:01:05.059Z,26.24
2023-05-21T15:03:32.951Z,26.44
2023-05-21T15:06:00.724Z,26.45
2023-05-21T15:08:28.479Z,26.39
2023-05-21T15:10:56.130Z,26.65
2023-05-21T15:13:25.145Z,26.62
2023-05-21T15:15:52.900Z,26.95
2023-05-21T15:18:20.687Z,26.64
2023-05-21T15:20:48.602Z,26.60
2023-05-21T15:23:17.641Z,26.42
2023-05-21T15:25:45.912Z,26.26
2023-05-21T15:28:13.695Z,26.42
2023-05-21T15:30:42.967Z,26.35
2023-05-21T15:33:11.076Z,26.41
2023-05-21T15:35:39.168Z,26.30
2023-05-21T15:38:07.323Z,26.38
2023-05-21T15:40:35.024Z,26.07
2023-05-21T15:43:02.724Z,26.28
2023-05-21T15:45:30.407Z,26.08
2023-05-21T15:47:59.511Z,26.28
2023-05-21T15:50:27.121Z,26.07
2023-05-21T15:52:54.796Z,26.10
2023-05-21T15:55:22.634Z,26.10
2023-05-21T15:57:50.640Z,26.23
2023-05-21T16:00:18.532Z,26.26
2023-05-21T16:02:46.249Z,26.34
2023-05-21T16:05:15.354Z,26.21
2023-05-21T16:07:43.048Z,26.44
2023-05-21T16:10:11.125Z,26.50
2023-05-21T16:12:39.076Z,26.50
2023-05-21T16:15:07.554Z,26.41
2023-05-21T16:17:35.201Z,26.44
2023-05-21T16:20:02.866Z,26.59
2023-05-21T16:22:31.805Z,26.37
2023-05-21T16:24:59.429Z,26.53
2023-05-21T16:27:27.051Z,26.41
2023-05-21T16:29:54.653Z,26.50
2023-05-21T16:32:22.651Z,26.40
2023-05-21T16:34:50.458Z,26.54
2023-05-21T16:37:18.126Z,26.39
2023-05-21T16:39:47.145Z,26.45
2023-05-21T16:42:14.802Z,26.34
2023-05-21T16:44:42.390Z,26.39
2023-05-21T16:47:10.124Z,26.49
2023-05-21T16:49:37.771Z,26.39
2023-05-21T16:52:05.671Z,26.37
2023-05-21T16:54:34.168Z,26.39
2023-05-21T16:57:03.246Z,26.18
2023-05-21T16:59:30.910Z,26.05
2023-05-21T17:01:58.578Z,26.07
2023-05-21T17:04:26.473Z,26.20
2023-05-21T17:06:54.116Z,25.96
2023-05-21T17:09:21.807Z,26.07
2023-05-21T17:11:49.583Z,26.08
2023-05-21T17:14:32.616Z,26.21
2023-05-21T17:17:01.763Z,26.10
2023-05-21T17:19:29.544Z,25.91
2023-05-21T17:21:59.228Z,25.93
2023-05-21T17:24:26.890Z,25.98
2023-05-21T17:26:54.764Z,25.97
2023-05-21T17:29:23.769Z,26.02
2023-05-21T17:31:51.560Z,25.88
2023-05-21T17:34:19.259Z,25.82
2023-05-21T17:36:46.923Z,25.89
2023-05-21T17:39:14.662Z,26.10
2023-05-21T17:41:42.518Z,26.03
2023-05-21T17:44:11.359Z,25.97
2023-05-21T17:46:40.482Z,25.79
2023-05-21T17:49:08.553Z,25.90
2023-05-21T17:51:36.958Z,25.64
2023-05-21T17:54:04.945Z,25.71
2023-05-21T17:56:34.276Z,25.64
2023-05-21T17:59:01.957Z,25.72
2023-05-21T18:01:29.680Z,25.43
2023-05-21T18:03:58.830Z,25.48
2023-05-21T18:06:26.476Z,25.41
2023-05-21T18:08:54.056Z,25.26
2023-05-21T18:11:22.328Z,25.27
2023-05-21T18:13:50.034Z,25.05
2023-05-21T18:16:18.001Z,25.23
2023-05-21T18:18:45.678Z,25.23
2023-05-21T18:21:14.767Z,25.03
2023-05-21T18:23:42.364Z,25.01
2023-05-21T18:26:09.980Z,24.85
2023-05-21T18:28:37.557Z,24.83
2023-05-21T18:31:05.219Z,24.73
2023-05-21T18:33:32.876Z,24.58
2023-05-21T18:36:00.556Z,24.41
2023-05-21T18:38:29.521Z,24.42
2023-05-21T18:40:57.123Z,24.33
2023-05-21T18:43:24.783Z,24.10
2023-05-21T18:45:52.378Z,24.07
2023-05-21T18:48:20.104Z,23.90
2023-05-21T18:50:47.769Z,24.02
2023-05-21T18:53:15.665Z,24.00
2023-05-21T18:55:44.664Z,23.91
2023-05-21T18:58:12.302Z,23.79
2023-05-21T19:00:40.071Z,23.64
2023-05-21T19:03:07.720Z,23.56
2023-05-21T19:05:35.434Z,23.55
2023-05-21T19:08:03.840Z,23.51
2023-05-21T19:10:32.335Z,23.42
2023-05-21T19:13:01.310Z,23.26
2023-05-21T19:15:28.931Z,23.12
2023-05-21T19:17:56.581Z,23.08
2023-05-21T19:20:24.863Z,22.97
2023-05-21T19:22:52.525Z,22.93
2023-05-21T19:25:20.185Z,22.94
2023-05-21T19:27:47.797Z,22.89
2023-05-21T19:30:16.977Z,22.77
2023-05-21T19:32:44.703Z,22.65
2023-05-21T19:35:12.295Z,22.56
2023-05-21T19:37:40.006Z,22.36
2023-05-21T19:40:08.892Z,22.36
2023-05-21T19:42:36.992Z,22.29
2023-05-21T19:45:06.793Z,22.19
2023-05-21T19:47:35.873Z,22.16
2023-05-21T19:50:03.936Z,22.09
2023-05-21T19:52:31.570Z,22.09
2023-05-21T19:55:04.414Z,22.03
2023-05-21T19:57:32.405Z,21.99
2023-05-21T20:00:00.095Z,21.99
2023-05-21T20:02:28.683Z,21.95
2023-05-21T20:04:58.978Z,21.87
2023-05-21T20:07:26.694Z,21.78
2023-05-21T20:09:54.285Z,21.73
2023-05-21T20:12:21.908Z,21.71
2023-05-21T20:14:49.848Z,21.64
2023-05-21T20:17:18.953Z,21.44
2023-05-21T20:19:48.161Z,21.46
2023-05-21T20:22:17.275Z,21.45
2023-05-21T20:24:45.130Z,21.36
2023-05-21T20:27:12.775Z,21.21
2023-05-21T20:29:42.853Z,21.14
2023-05-21T20:32:10.559Z,21.08
2023-05-21T20:34:47.222Z,21.10
2023-05-21T20:37:26.074Z,21.05
2023-05-21T20:39:58.033Z,20.99
2023-05-21T20:42:28.376Z,20.95
2023-05-21T20:44:58.844Z,20.90
2023-05-21T20:47:29.800Z,20.69
2023-05-21T20:49:58.450Z,20.48
2023-05-21T20:52:27.521Z,20.49
2023-05-21T20:54:55.273Z,20.47
2023-05-21T20:57:23.998Z,20.69
2023-05-21T20:59:52.327Z,20.55
2023-05-21T21:02:20.610Z,20.75
2023-05-21T21:04:48.923Z,20.71
2023-05-21T21:07:18.088Z,20.75
2023-05-21T21:09:47.603Z,20.68
2023-05-21T21:12:26.124Z,20.70
2023-05-21T21:14:54.549Z,20.64
2023-05-21T21:17:22.228Z,20.57
2023-05-21T21:19:49.946Z,20.58
2023-05-21T21:22:18.244Z,20.43
2023-05-21T21:24:48.151Z,20.33
2023-05-21T21:27:15.838Z,20.25
2023-05-21T21:29:44.134Z,20.19
2023-05-21T21:32:11.779Z,20.15
2023-05-21T21:34:39.368Z,20.08
2023-05-21T21:37:07.032Z,20.09
2023-05-21T21:39:34.694Z,19.97
2023-05-21T21:42:03.718Z,19.99
2023-05-21T21:44:31.397Z,20.00
2023-05-21T21:46:59.015Z,19.91
2023-05-21T21:49:26.660Z,19.93
2023-05-21T21:51:57.622Z,19.84
2023-05-21T21:54:25.504Z,19.78
2023-05-21T21:56:53.164Z,19.67
2023-05-21T21:59:22.423Z,19.60
2023-05-21T22:01:50.226Z,19.55
2023-05-21T22:04:17.902Z,19.58
2023-05-21T22:06:46.716Z,19.55
2023-05-21T22:09:14.380Z,19.59
2023-05-21T22:11:42.246Z,19.55
2023-05-21T22:14:11.574Z,19.54
2023-05-21T22:16:41.458Z,19.55
2023-05-21T22:19:10.169Z,19.57
2023-05-21T22:21:37.987Z,19.54
2023-05-21T22:24:05.809Z,19.58
2023-05-21T22:26:33.483Z,19.47
2023-05-21T22:29:01.103Z,19.54
2023-05-21T22:31:28.720Z,19.46
2023-05-21T22:33:57.949Z,19.38
2023-05-21T22:36:25.643Z,19.34
2023-05-21T22:38:53.372Z,19.34
2023-05-21T22:41:21.775Z,19.24
2023-05-21T22:43:49.463Z,19.30
2023-05-21T22:46:17.104Z,19.19
2023-05-21T22:48:46.022Z,19.23
2023-05-21T22:51:15.079Z,19.14
2023-05-21T22:53:42.928Z,19.11
2023-05-21T22:56:11.731Z,19.06
2023-05-21T22:58:39.397Z,19.10
2023-05-21T23:01:07.059Z,19.03
2023-05-21T23:03:34.667Z,18.94
2023-05-21T23:06:02.309Z,18.85
2023-05-21T23:08:31.256Z,18.86
2023-05-21T23:10:58.909Z,18.83
2023-05-21T23:13:26.675Z,18.76
2023-05-21T23:15:54.336Z,18.78
2023-05-21T23:18:21.996Z,18.77
2023-05-21T23:20:49.693Z,18.69
2023-05-21T23:23:17.365Z,18.72
2023-05-21T23:25:46.560Z,18.80
2023-05-21T23:28:14.153Z,18.76
2023-05-21T23:30:41.862Z,18.64
2023-05-21T23:33:09.829Z,18.59
2023-05-21T23:35:37.514Z,18.70
2023-05-21T23:38:05.147Z,18.63
2023-05-21T23:40:32.789Z,18.65
2023-05-21T23:43:01.736Z,18.67
2023-05-21T23:45:29.425Z,18.63
2023-05-21T23:47:57.093Z,18.59
2023-05-21T23:50:25.926Z,18.57
2023-05-21T23:52:53.599Z,18.41
2023-05-21T23:55:21.253Z,18.32
2023-05-21T23:57:48.865Z,18.24
